Aeroporto :
LOGIN :

Iscrizione | Disclaimer

   EN    FR    IT 

 










Sommario :    VFR   VFR Marginale   IFR   IFR Intensivo   IFR Molto Intensivo
Visibilità : 
Base nubi : 
>= 8 km
>= 3000ft
5 / 8 km
1000 / 3000 ft
1500m / 5 km
500 / 1000 ft
800 / 1500m
200 / 500 ft
< 800m
< 200 ft
Simboli :   Temporali  Nebbia  Neve Forte  Precipitazioni Forti  Vento > 20 kt
SIGMETs :   Varie  Temporali  Ghiacco  Turbolenza  Onda orograficha  Ceneri Vulcaniche







- Altitudine del aeroporto : 49 ft
- Codice IATA : GLZ


EHGR - Gilze-Rijen Airbase

ULTIMO METAR :
  • 152055Z AUTO 19001KT 3100 BR NCD 13/13 Q1016 YLO

METARs OBSOLETI :
  • 152041Z AUTO 19001KT 4500 BR NCD 13/13 Q1016 GRN
  • 152025Z AUTO 00000KT 7000 BR FEW082 13/13 Q1016 WHT
  • 151955Z AUTO VRB02KT 9999 FEW084 14/13 Q1016 BLU
  • 151925Z AUTO VRB01KT 9999 NCD 16/13 Q1015 BLU
  • 151855Z AUTO VRB01KT 9999 FEW052 17/14 Q1015 BLU
  • 151825Z AUTO VRB01KT 9999 FEW048 SCT064 18/13 Q1015 BLU
  • 151755Z AUTO VRB01KT 9999 FEW048 SCT250 17/13 Q1015 BLU

Previsioni scadute.
Nessun NOTAM noto per questo aeroporto.



MetMap, La meteo Aeronautica in un colpo d'occhio ! - Copyright ORBIFLY Dicembre 2007 - Disclaimer

ORBIFLY MET'MAP TEAM :

Programmazione e sviluppo : Alexandra Zaïnal
Concezione e sviluppo : Baudouin d'Aumeries
Co-Programmazione e sviluppo : Marc-Olivier Méhu
Supporto tecnico e logistico : Manuel Goepfert
Aiuto per la traduzione : Arnaldo La Scala

Contatto : metmap@orbifly.com




FONTI E CREDITI :

   NOAA